createdAt,value
2023-01-01T00:00:12.223Z,53.70
2023-01-01T00:03:09.613Z,45.10
2023-01-01T00:07:35.002Z,43.92
2023-01-01T00:10:29.895Z,43.85
2023-01-01T00:12:59.479Z,43.35
2023-01-01T00:17:11.642Z,45.90
2023-01-01T00:19:41.149Z,41.83
2023-01-01T00:22:52.818Z,39.55
2023-01-01T00:25:23.655Z,40.55
2023-01-01T00:28:23.331Z,43.10
2023-01-01T00:31:17.455Z,40.88
2023-01-01T00:33:54.980Z,44.00
2023-01-01T00:36:57.929Z,40.13
2023-01-01T00:39:29.072Z,35.58
2023-01-01T00:42:43.800Z,40.08
2023-01-01T00:45:53.340Z,35.05
2023-01-01T00:48:45.491Z,37.70
2023-01-01T00:51:24.767Z,33.80
2023-01-01T00:54:33.461Z,35.70
2023-01-01T00:57:37.569Z,37.28
2023-01-01T01:00:39.007Z,33.30
2023-01-01T01:08:12.894Z,35.03
2023-01-01T01:11:16.684Z,32.33
2023-01-01T01:14:00.835Z,35.92
2023-01-01T01:17:06.007Z,36.58
2023-01-01T01:21:47.778Z,34.05
2023-01-01T01:24:44.725Z,34.42
2023-01-01T01:27:20.986Z,35.42
2023-01-01T01:30:26.608Z,38.03
2023-01-01T01:34:49.247Z,41.78
2023-01-01T01:38:08.603Z,40.22
2023-01-01T01:42:38.439Z,38.22
2023-01-01T01:49:41.438Z,38.33
2023-01-01T01:59:27.032Z,40.20
2023-01-01T02:17:50.432Z,32.08
2023-01-01T02:21:00.782Z,29.17
2023-01-01T02:24:13.865Z,29.83
2023-01-01T02:30:50.480Z,31.27
2023-01-01T02:33:57.320Z,35.50
2023-01-01T02:38:34.400Z,36.75
2023-01-01T02:43:07.919Z,34.63
2023-01-01T02:47:38.936Z,31.20
2023-01-01T02:54:55.469Z,23.15
2023-01-01T02:57:44.791Z,29.80
2023-01-01T03:00:19.892Z,30.60
2023-01-01T03:03:27.623Z,27.10
2023-01-01T03:06:59.593Z,30.00
2023-01-01T03:10:50.049Z,29.10
2023-01-01T03:14:07.571Z,31.05
2023-01-01T03:21:08.085Z,29.77
2023-01-01T03:25:40.407Z,30.13
2023-01-01T03:28:44.874Z,29.92
2023-01-01T03:31:50.472Z,24.33
2023-01-01T03:34:54.334Z,22.33
2023-01-01T03:38:02.598Z,25.30
2023-01-01T03:42:18.748Z,27.40
2023-01-01T03:44:54.947Z,25.95
2023-01-01T03:47:44.349Z,25.75
2023-01-01T03:51:21.895Z,28.20
2023-01-01T03:54:34.714Z,21.48
2023-01-01T03:57:36.026Z,25.38
2023-01-01T04:00:28.497Z,24.73
2023-01-01T04:03:25.012Z,16.63
2023-01-01T04:06:15.499Z,26.42
2023-01-01T04:09:12.078Z,25.98
2023-01-01T04:12:04.667Z,26.95
2023-01-01T04:14:53.006Z,25.65
2023-01-01T04:17:23.416Z,22.90
2023-01-01T04:20:13.585Z,25.23
2023-01-01T04:23:04.474Z,23.92
2023-01-01T04:25:57.270Z,22.77
2023-01-01T04:28:46.666Z,24.80
2023-01-01T04:31:38.446Z,23.95
2023-01-01T04:34:31.777Z,24.88
2023-01-01T04:37:23.093Z,27.00
2023-01-01T04:40:13.583Z,25.88
2023-01-01T04:43:02.890Z,23.55
2023-01-01T04:47:29.187Z,21.05
2023-01-01T04:54:32.300Z,24.30
2023-01-01T05:03:37.899Z,19.50
2023-01-01T05:06:38.032Z,21.08
2023-01-01T05:11:15.180Z,15.20
2023-01-01T05:14:12.314Z,18.38
2023-01-01T05:19:00.868Z,22.80
2023-01-01T05:23:54.606Z,17.25
2023-01-01T05:31:18.366Z,16.02
2023-01-01T05:35:46.201Z,9.40
2023-01-01T05:42:48.614Z,14.10
2023-01-01T06:00:54.337Z,18.17
2023-01-01T06:04:03.383Z,23.48
2023-01-01T06:08:30.070Z,17.45
2023-01-01T06:16:08.459Z,20.13
2023-01-01T06:18:42.627Z,13.88
2023-01-01T06:23:10.506Z,16.27
2023-01-01T06:25:57.531Z,20.15
2023-01-01T06:28:49.927Z,21.40
2023-01-01T06:31:49.670Z,17.70
2023-01-01T06:34:47.073Z,20.67
2023-01-01T06:38:56.697Z,19.27
2023-01-01T06:41:44.606Z,18.77
2023-01-01T06:44:12.769Z,19.03
2023-01-01T06:47:10.342Z,13.17
2023-01-01T06:51:42.305Z,7.18
2023-01-01T06:54:43.642Z,14.88
2023-01-01T07:01:27.170Z,14.02
2023-01-01T07:05:29.756Z,13.90
2023-01-01T07:08:01.872Z,8.23
2023-01-01T07:10:59.797Z,11.75
2023-01-01T07:15:19.834Z,13.60
2023-01-01T07:27:28.189Z,16.38
2023-01-01T07:30:26.415Z,8.32
2023-01-01T07:33:20.279Z,16.20
2023-01-01T07:36:18.490Z,14.10
2023-01-01T07:40:19.285Z,11.57
2023-01-01T07:43:10.424Z,11.02
2023-01-01T07:45:52.274Z,8.43
2023-01-01T07:48:44.047Z,8.82
2023-01-01T07:51:16.291Z,12.55
2023-01-01T07:53:52.514Z,11.55
2023-01-01T07:56:21.581Z,11.70
2023-01-01T07:58:52.397Z,12.98
2023-01-01T08:01:27.063Z,11.47
2023-01-01T08:04:27.057Z,11.02
2023-01-01T08:06:59.987Z,8.68
2023-01-01T08:09:28.249Z,14.10
2023-01-01T08:12:05.947Z,7.78
2023-01-01T08:14:36.672Z,7.38
2023-01-01T08:17:20.966Z,9.73
2023-01-01T08:19:53.527Z,11.10
2023-01-01T08:22:43.050Z,13.98
2023-01-01T08:25:32.704Z,9.65
2023-01-01T08:28:07.580Z,13.38
2023-01-01T08:31:05.491Z,9.77
2023-01-01T08:33:52.398Z,11.15
2023-01-01T08:36:21.234Z,12.00
2023-01-01T08:38:52.032Z,7.43
2023-01-01T08:41:29.995Z,9.98
2023-01-01T08:44:01.485Z,6.43
2023-01-01T08:46:32.703Z,6.35
2023-01-01T08:49:03.760Z,18.98
2023-01-01T08:51:32.185Z,23.08
2023-01-01T08:54:10.689Z,10.07
2023-01-01T08:57:08.107Z,10.77
2023-01-01T08:59:41.328Z,9.30
2023-01-01T09:02:11.873Z,7.15
2023-01-01T09:04:40.531Z,6.15
2023-01-01T09:07:13.222Z,8.68
2023-01-01T09:09:46.607Z,9.73
2023-01-01T09:12:34.427Z,10.13
2023-01-01T09:15:05.105Z,8.30
2023-01-01T09:17:55.683Z,9.90
2023-01-01T09:21:26.737Z,6.47
2023-01-01T09:24:00.210Z,9.38
2023-01-01T09:26:34.194Z,8.77
2023-01-01T09:29:03.536Z,8.35
2023-01-01T09:31:32.897Z,7.50
2023-01-01T09:34:06.817Z,9.98
2023-01-01T09:36:58.166Z,9.57
2023-01-01T09:39:31.174Z,12.02
2023-01-01T09:42:54.450Z,14.05
2023-01-01T09:45:38.152Z,13.68
2023-01-01T09:49:01.792Z,12.82
2023-01-01T09:51:44.765Z,12.77
2023-01-01T09:54:32.269Z,9.43
2023-01-01T09:57:04.640Z,11.93
2023-01-01T09:59:36.503Z,6.70
2023-01-01T10:02:46.833Z,8.63
2023-01-01T10:05:40.913Z,8.95
2023-01-01T10:08:44.702Z,12.75
2023-01-01T10:11:25.478Z,10.10
2023-01-01T10:14:27.068Z,10.30
2023-01-01T10:17:31.366Z,10.02
2023-01-01T10:20:31.460Z,10.90
2023-01-01T10:27:53.958Z,10.90
2023-01-01T10:30:29.825Z,11.80
2023-01-01T10:33:21.751Z,15.32
2023-01-01T10:36:18.003Z,11.25
2023-01-01T10:39:19.971Z,15.30
2023-01-01T10:42:19.423Z,14.25
2023-01-01T10:48:42.768Z,14.70
2023-01-01T10:52:47.163Z,8.02
2023-01-01T10:55:26.222Z,7.07
2023-01-01T10:59:00.935Z,12.38
2023-01-01T11:02:21.088Z,17.42
2023-01-01T11:05:40.793Z,16.35
2023-01-01T11:10:27.729Z,17.13
2023-01-01T11:27:41.243Z,18.88
2023-01-01T11:30:38.205Z,14.73
2023-01-01T11:33:45.272Z,20.88
2023-01-01T11:36:48.764Z,33.92
2023-01-01T11:39:54.815Z,8.27
2023-01-01T11:43:03.299Z,24.38
2023-01-01T11:47:24.548Z,28.67
2023-01-01T11:53:45.317Z,16.65
2023-01-01T11:57:12.177Z,15.68
2023-01-01T12:10:54.326Z,9.98
2023-01-01T12:27:32.368Z,20.75
2023-01-01T12:30:33.217Z,13.63
2023-01-01T12:33:49.940Z,13.05
2023-01-01T12:36:40.671Z,21.55
2023-01-01T12:39:49.369Z,11.18
2023-01-01T12:42:41.160Z,18.77
2023-01-01T12:46:02.045Z,12.52
2023-01-01T12:48:51.922Z,19.67
2023-01-01T12:51:37.961Z,17.67
2023-01-01T12:54:24.064Z,14.45
2023-01-01T12:57:24.341Z,10.55
2023-01-01T12:59:54.823Z,17.20
2023-01-01T13:02:33.936Z,17.83
2023-01-01T13:05:26.106Z,15.73
2023-01-01T13:08:03.666Z,10.70
2023-01-01T13:10:34.675Z,15.40
2023-01-01T13:13:04.055Z,16.55
2023-01-01T13:15:38.435Z,15.02
2023-01-01T13:18:16.280Z,15.98
2023-01-01T13:20:59.298Z,19.20
2023-01-01T13:23:37.157Z,18.75
2023-01-01T13:26:21.185Z,18.00
2023-01-01T13:29:12.236Z,17.45
2023-01-01T13:31:49.703Z,19.52
2023-01-01T13:34:37.150Z,14.07
2023-01-01T13:37:28.683Z,14.85
2023-01-01T13:40:01.474Z,13.38
2023-01-01T13:43:08.072Z,19.17
2023-01-01T13:46:11.035Z,15.45
2023-01-01T13:49:06.751Z,19.50
2023-01-01T13:52:09.546Z,18.45
2023-01-01T13:55:15.711Z,14.13
2023-01-01T13:58:21.999Z,15.93
2023-01-01T14:01:29.699Z,17.83
2023-01-01T14:04:02.533Z,18.67
2023-01-01T14:06:44.078Z,27.83
2023-01-01T14:09:17.887Z,25.15
2023-01-01T14:11:54.100Z,16.10
2023-01-01T14:14:28.853Z,11.73
2023-01-01T14:17:04.589Z,23.40
2023-01-01T14:19:41.237Z,22.90
2023-01-01T14:22:19.514Z,20.85
2023-01-01T14:24:48.782Z,17.92
2023-01-01T14:27:21.463Z,20.60
2023-01-01T14:29:54.216Z,23.13
2023-01-01T14:32:25.166Z,16.15
2023-01-01T14:35:03.938Z,17.75
2023-01-01T14:37:33.569Z,16.52
2023-01-01T14:40:32.169Z,11.82
2023-01-01T14:46:35.838Z,14.23
2023-01-01T14:49:37.181Z,9.57
2023-01-01T14:52:17.407Z,14.00
2023-01-01T14:54:47.510Z,17.63
2023-01-01T14:57:20.553Z,16.42
2023-01-01T15:00:01.922Z,18.42
2023-01-01T15:02:33.583Z,22.92
2023-01-01T15:05:26.693Z,19.13
2023-01-01T15:08:01.352Z,12.85
2023-01-01T15:10:32.203Z,13.45
2023-01-01T15:13:24.231Z,13.95
2023-01-01T15:16:18.887Z,14.02
2023-01-01T15:18:56.753Z,19.02
2023-01-01T15:21:34.746Z,17.25
2023-01-01T15:24:36.388Z,18.90
2023-01-01T15:27:09.531Z,16.98
2023-01-01T15:29:53.527Z,16.60
2023-01-01T15:32:32.654Z,14.90
2023-01-01T15:35:31.204Z,19.75
2023-01-01T15:38:13.480Z,18.50
2023-01-01T15:40:49.448Z,14.02
2023-01-01T15:43:35.072Z,14.95
2023-01-01T15:46:20.991Z,20.05
2023-01-01T15:48:53.721Z,18.33
2023-01-01T15:51:26.690Z,19.38
2023-01-01T15:54:02.094Z,19.55
2023-01-01T15:56:32.464Z,20.48
2023-01-01T15:59:09.684Z,12.70
2023-01-01T16:01:42.419Z,18.52
2023-01-01T16:04:20.797Z,19.73
2023-01-01T16:06:56.108Z,13.00
2023-01-01T16:09:33.286Z,17.17
2023-01-01T16:12:11.501Z,16.35
2023-01-01T16:14:39.707Z,16.33
2023-01-01T16:17:17.889Z,22.45
2023-01-01T16:19:47.655Z,15.43
2023-01-01T16:25:55.031Z,18.83
2023-01-01T16:28:41.453Z,13.05
2023-01-01T16:31:18.516Z,18.33
2023-01-01T16:33:52.710Z,20.00
2023-01-01T16:36:29.686Z,17.20
2023-01-01T16:39:00.496Z,19.42
2023-01-01T16:41:30.410Z,19.25
2023-01-01T16:43:58.746Z,21.77
2023-01-01T16:46:29.981Z,22.92
2023-01-01T16:49:10.827Z,19.25
2023-01-01T16:51:44.146Z,15.25
2023-01-01T16:54:15.757Z,14.07
2023-01-01T16:56:53.898Z,14.20
2023-01-01T16:59:23.455Z,16.80
2023-01-01T17:01:53.023Z,14.80
2023-01-01T17:04:21.790Z,22.58
2023-01-01T17:06:50.800Z,20.55
2023-01-01T17:09:25.039Z,22.75
2023-01-01T17:11:54.761Z,12.52
2023-01-01T17:20:22.215Z,18.48
2023-01-01T17:23:49.002Z,21.27
2023-01-01T17:26:38.651Z,19.13
2023-01-01T17:29:12.380Z,18.95
2023-01-01T17:33:04.773Z,18.00
2023-01-01T17:37:00.741Z,19.80
2023-01-01T17:39:33.014Z,21.40
2023-01-01T17:42:52.339Z,21.05
2023-01-01T17:45:47.154Z,15.55
2023-01-01T17:49:09.363Z,19.98
2023-01-01T17:52:04.827Z,18.95
2023-01-01T17:54:40.427Z,23.10
2023-01-01T17:57:17.453Z,15.10
2023-01-01T18:06:42.678Z,20.73
2023-01-01T18:13:44.980Z,19.27
2023-01-01T18:21:14.601Z,16.38
2023-01-01T18:24:03.014Z,14.60
2023-01-01T18:26:38.368Z,17.73
2023-01-01T18:29:28.497Z,17.33
2023-01-01T18:32:06.744Z,15.18
2023-01-01T18:34:51.818Z,21.02
2023-01-01T18:37:30.022Z,10.15
2023-01-01T18:40:22.295Z,19.98
2023-01-01T18:43:26.915Z,19.50
2023-01-01T18:46:16.297Z,23.00
2023-01-01T18:49:12.694Z,12.27
2023-01-01T18:52:09.468Z,19.38
2023-01-01T18:55:13.340Z,17.65
2023-01-01T18:57:52.451Z,15.05
2023-01-01T19:00:31.686Z,22.58
2023-01-01T19:03:33.597Z,24.63
2023-01-01T19:06:29.803Z,22.92
2023-01-01T19:09:27.510Z,20.20
2023-01-01T19:12:19.411Z,23.20
2023-01-01T19:15:22.830Z,20.55
2023-01-01T19:18:18.923Z,18.27
2023-01-01T19:21:25.908Z,21.08
2023-01-01T19:24:24.706Z,18.83
2023-01-01T19:27:26.874Z,19.88
2023-01-01T19:30:26.088Z,19.00
2023-01-01T19:33:22.036Z,21.52
2023-01-01T19:36:38.200Z,22.77
2023-01-01T19:45:02.897Z,26.65
2023-01-01T19:48:29.749Z,23.98
2023-01-01T19:53:09.446Z,19.30
2023-01-01T20:25:25.543Z,21.15
2023-01-01T20:30:19.126Z,23.40
2023-01-01T20:33:15.773Z,21.35
2023-01-01T20:36:39.125Z,21.95
2023-01-01T20:39:31.224Z,21.20
2023-01-01T20:42:27.155Z,22.23
2023-01-01T20:45:19.023Z,12.00
2023-01-01T20:47:50.611Z,23.05
2023-01-01T20:51:03.565Z,23.50
2023-01-01T20:53:51.504Z,18.20
2023-01-01T20:56:42.655Z,21.70
2023-01-01T20:59:42.249Z,20.05
2023-01-01T21:02:45.426Z,23.10
2023-01-01T21:05:56.003Z,23.63
2023-01-01T21:08:34.205Z,21.13
2023-01-01T21:11:27.499Z,19.33
2023-01-01T21:14:19.820Z,19.10
2023-01-01T21:17:22.472Z,24.52
2023-01-01T21:20:12.661Z,14.25
2023-01-01T21:23:30.500Z,19.52
2023-01-01T21:26:27.144Z,24.42
2023-01-01T21:29:32.801Z,27.27
2023-01-01T21:32:34.554Z,22.50
2023-01-01T21:35:37.356Z,14.68
2023-01-01T21:40:22.351Z,18.73
2023-01-01T21:49:55.070Z,22.30
2023-01-01T21:57:23.068Z,15.27
2023-01-01T22:00:24.690Z,21.33
2023-01-01T22:05:13.387Z,20.02
2023-01-01T22:07:57.546Z,23.98
2023-01-01T22:11:14.399Z,22.27
2023-01-01T22:14:45.389Z,19.98
2023-01-01T22:18:13.739Z,15.90
2023-01-01T22:21:52.731Z,24.77
2023-01-01T22:24:46.329Z,22.10
2023-01-01T22:28:35.096Z,23.02
2023-01-01T22:31:30.436Z,16.00
2023-01-01T22:34:07.376Z,20.23
2023-01-01T22:36:38.956Z,24.58
2023-01-01T22:40:00.989Z,23.50
2023-01-01T22:44:39.216Z,21.65
2023-01-01T22:47:37.949Z,24.42
2023-01-01T22:50:38.202Z,22.47
2023-01-01T22:53:35.742Z,25.95
2023-01-01T22:58:25.933Z,22.25
2023-01-01T23:01:01.980Z,21.20
2023-01-01T23:04:20.967Z,23.13
2023-01-01T23:07:14.722Z,17.90
2023-01-01T23:10:07.333Z,20.52
2023-01-01T23:13:30.591Z,15.57
2023-01-01T23:16:34.262Z,21.08
2023-01-01T23:19:08.072Z,26.35
2023-01-01T23:22:09.307Z,20.38
2023-01-01T23:26:38.034Z,27.00
2023-01-01T23:29:33.190Z,26.80
2023-01-01T23:32:42.011Z,25.05
2023-01-01T23:35:30.640Z,24.48
2023-01-01T23:38:02.975Z,21.65
2023-01-01T23:40:47.437Z,23.48
2023-01-01T23:43:28.481Z,24.63
2023-01-01T23:46:25.317Z,15.63
2023-01-01T23:48:54.716Z,18.23
2023-01-01T23:51:26.334Z,23.90
2023-01-01T23:54:34.913Z,22.40
2023-01-01T23:57:34.588Z,15.63
